DMAD Reservoir




Date Reservoir Capacity (AF) Hourly Avg. Stream Stage (ft) Reservoir Outflow (cfs) Reservoir Gate 1 Height (ft) Reservoir Gate 2 Height (ft) Reservoir Gate 3 Height (ft) Stream Flow (cfs) Stream Conductivity (ppm) Battery Voltage (V) Reservoir Height (ft) Canal Flow (cfs) Canal Height (ft) Canal Flow 2 (ft)
02/01/2017 4,506 0 0.00 0.00 0.00 0.00 0.00 13.31 59.29 0.00 0.00
02/02/2017 4,514 0 0.00 0.00 0.00 0.00 0.00 13.15 59.30 0.00 0.00
02/03/2017 4,544 0 0.00 0.00 0.00 0.00 0.00 13.29 59.34 0.00 0.00
02/04/2017 4,625 0 0.00 0.00 0.00 0.00 0.00 13.32 59.45 0.00 0.00
02/05/2017 4,655 0 0.00 0.00 0.00 0.00 0.00 13.32 59.49 0.00 0.00
02/06/2017 4,655 0 0.00 0.00 0.00 0.00 0.00 13.10 59.49 0.00 0.00
02/07/2017 4,663 0 0.00 0.00 0.00 0.00 0.00 12.91 59.50 0.00 0.00
02/08/2017 4,677 0 0.00 0.00 0.00 0.00 0.00 13.26 59.52 0.00 0.00
02/09/2017 4,759 0 0.00 0.00 0.00 0.00 0.00 13.15 59.63 0.00 0.00
02/10/2017 4,774 0 0.00 0.00 0.00 0.00 0.00 12.73 59.65 0.00 0.00
02/11/2017 4,878 0 0.00 0.00 0.00 0.00 0.00 12.89 59.79 0.00 0.00
02/12/2017 4,893 0 0.00 0.00 0.00 0.00 0.00 13.37 59.81 0.00 0.00
02/13/2017 4,908 0 0.00 0.00 0.00 0.00 0.00 13.45 59.83 0.00 0.00
02/14/2017 4,975 0 0.00 0.00 0.00 0.00 0.00 13.46 59.92 0.00 0.00
02/15/2017 4,997 0 0.00 0.00 0.00 0.00 0.00 13.46 59.95 0.00 0.00
02/16/2017 5,004 0 0.00 0.00 0.00 0.00 0.00 13.36 59.96 0.00 0.00
02/17/2017 5,012 0 0.00 0.00 0.00 0.00 0.00 12.93 59.97 0.00 0.00
02/18/2017 5,098 0 0.00 0.00 0.00 0.00 0.00 13.08 60.00 0.00 0.00
02/19/2017 5,098 0 0.00 0.00 0.00 0.00 0.00 13.24 60.00 0.00 0.00
02/20/2017 5,098 0 0.00 0.00 0.00 0.00 0.00 13.24 60.00 0.00 0.00
02/21/2017 5,098 0 0.00 0.00 0.00 0.00 0.00 13.29 60.00 0.00 0.00
02/22/2017 5,069 0 0.00 0.00 0.00 0.00 0.00 13.14 60.04 0.00 0.00
02/23/2017 5,069 0 0.00 0.00 0.00 0.00 0.00 13.17 60.04 0.00 0.00
02/24/2017 5,147 0 0.00 0.00 0.00 0.00 0.00 13.32 60.13 0.00 0.00
02/25/2017 5,165 0 0.00 0.00 0.00 0.00 0.00 13.50 60.15 0.00 0.00
02/26/2017 5,173 0 0.00 0.00 0.00 0.00 0.00 13.50 60.16 0.00 0.00
02/27/2017 5,156 0 0.00 0.00 0.00 0.00 0.00 12.83 60.14 0.00 0.00
02/28/2017 5,278 0 0.00 0.00 0.00 0.00 0.00 13.18 60.28 0.00 0.00
Average 0 0.00 0.00
Maximum 0 0.00 0.00
Minimum 0 0.00 0.00
Total Volume (AF) 0 0.00 0.00